Airfield :
LOGIN :

Register | Disclaimer

   EN    FR    IT 

 










Legend :    VFR   Marginal VFR   IFR   Intensive IFR   Very Intensive IFR
Visi :
Ceiling :
>= 8 km
>= 3000ft
5 to 8 km
1000 to 3000 ft
1500m to 5 km
500 to 1000 ft
800 to 1500m
200 to 500 ft
< 800m
< 200 ft
Symbols :   Thunderstorms  Fog  Heavy snow  Heavy precipitations  Wind > 20 kt
SIGMETs :     Misc.  Thunderstorms  Icing  Turbulence  Mountain Waves  Volcanic Ashes






- Airport Elevation : 245 ft
- IATA code : BIQ


LFBZ - Biarritz

CURRENT METAR :
  • 251300Z AUTO 04006KT CAVOK 16/07 Q1013 NOSIG

EXPIRED METARs :
  • 251230Z AUTO 03005KT CAVOK 16/07 Q1013 NOSIG
  • 251200Z AUTO 04004KT CAVOK 15/07 Q1014 NOSIG
  • 251130Z AUTO 05003KT 010V090 CAVOK 14/07 Q1014 TEMPO 22010KT
  • 251100Z AUTO 07005KT CAVOK 14/07 Q1014 TEMPO 22010KT
  • 251030Z AUTO VRB03KT CAVOK 14/07 Q1015 NOSIG

TAF TAF LFBZ
Valid from the 25 at 12:00 until the 26 at 12:00 UTC


251100Z 2512/2612 22006KT CAVOK
BECMG 2513/2515 09006KT



MET'MAP, your aeronautical weather chart ! - Copyright ORBIFLY December 2007 - Disclaimer

ORBIFLY MET'MAP TEAM :

Programming & Development : Alexandra Zaïnal
Concept & original design : Baudouin d'Aumeries
Assistance for programming : Marc-Olivier Méhu
Technical & hardware support : Manuel Goepfert

Contact : metmap@orbifly.com




SOURCES & CREDITS :

   NOAA